Time;durP1;ratioP1;P1;durP2;ratioP2;P2;SDS_P1;SDS_P2;PMS_P1;PMS_P2;Temp;Humidity;BMP_temperature;BMP_pressure;BME280_temperature;BME280_humidity;BME280_pressure;Samples;Min_cycle;Max_cycle;Signal;HPM_P1;HPM_P2
2020/12/02 00:00:18;;;;;;;148.57;115.18;;;19.50;41.80;;;;;;457674;56;20993;-30
2020/12/02 00:00:49;;;;;;;149.00;114.32;;;19.50;41.70;;;;;;457381;60;21144;-35
2020/12/02 00:01:31;;;;;;;147.40;114.68;;;19.50;41.70;;;;;;471471;56;20993;-34
2020/12/02 00:02:02;;;;;;;153.85;116.68;;;19.50;41.70;;;;;;457741;60;20984;-24
2020/12/02 00:02:38;;;;;;;153.93;118.07;;;19.50;41.70;;;;;;480082;56;21041;-36
2020/12/02 00:04:24;;;;;;;147.73;113.93;;;19.50;41.70;;;;;;475215;56;21021;-35
2020/12/02 00:04:59;;;;;;;158.02;117.65;;;19.50;41.70;;;;;;477962;56;20985;-32
2020/12/02 00:05:32;;;;;;;153.05;117.37;;;19.50;41.80;;;;;;472133;56;21044;-33
2020/12/02 00:06:04;;;;;;;155.63;117.75;;;19.50;41.80;;;;;;481552;56;21455;-35
2020/12/02 00:06:37;;;;;;;153.23;116.00;;;19.50;41.80;;;;;;457501;57;20998;-22
2020/12/02 00:07:09;;;;;;;157.15;118.93;;;19.50;41.70;;;;;;457397;60;21103;-32
2020/12/02 00:07:41;;;;;;;158.45;116.78;;;19.50;41.70;;;;;;462876;56;20969;-36
2020/12/02 00:08:17;;;;;;;155.37;117.53;;;19.50;41.70;;;;;;461574;56;22146;-36
2020/12/02 00:08:57;;;;;;;145.90;113.40;;;19.50;41.80;;;;;;464275;56;21009;-34
2020/12/02 00:09:28;;;;;;;152.98;117.15;;;19.50;41.70;;;;;;464622;56;20945;-32
2020/12/02 00:09:59;;;;;;;154.40;117.40;;;19.50;41.70;;;;;;477186;56;20985;-32
2020/12/02 00:10:30;;;;;;;157.05;120.55;;;19.50;41.70;;;;;;479484;56;20965;-29
2020/12/02 00:11:02;;;;;;;148.52;114.90;;;19.50;41.60;;;;;;476314;56;20977;-35
2020/12/02 00:11:34;;;;;;;153.48;118.25;;;19.50;41.60;;;;;;486740;56;21012;-29
2020/12/02 00:12:04;;;;;;;158.30;119.37;;;19.50;41.70;;;;;;478982;56;21168;-29
2020/12/02 00:12:37;;;;;;;156.48;118.53;;;19.50;41.80;;;;;;463790;56;21310;-35
2020/12/02 00:13:17;;;;;;;154.27;118.43;;;19.50;41.90;;;;;;457668;60;21511;-31
2020/12/02 00:13:49;;;;;;;149.27;114.57;;;19.50;41.90;;;;;;467522;56;21135;-31
2020/12/02 00:14:26;;;;;;;149.90;114.55;;;19.50;41.60;;;;;;471203;56;21028;-30
2020/12/02 00:14:56;;;;;;;151.65;116.30;;;19.50;41.60;;;;;;503005;56;20952;-36
2020/12/02 00:15:28;;;;;;;149.15;112.95;;;19.50;41.60;;;;;;460597;56;20977;-35
2020/12/02 00:16:00;;;;;;;150.82;117.35;;;19.50;41.60;;;;;;484317;56;21016;-35
2020/12/02 00:16:32;;;;;;;150.23;116.32;;;19.50;41.60;;;;;;460324;56;21068;-34
2020/12/02 00:17:03;;;;;;;149.00;115.35;;;19.50;41.60;;;;;;483422;56;20988;-35
2020/12/02 00:17:34;;;;;;;155.00;117.30;;;19.50;41.60;;;;;;465981;56;21013;-35
2020/12/02 00:18:05;;;;;;;154.07;118.40;;;19.50;41.60;;;;;;461756;56;20957;-31
2020/12/02 00:18:36;;;;;;;155.52;120.25;;;19.50;41.70;;;;;;457506;60;21021;-31
2020/12/02 00:19:08;;;;;;;150.35;116.97;;;19.50;41.80;;;;;;457514;60;20965;-34
2020/12/02 00:19:39;;;;;;;156.65;119.43;;;19.50;41.90;;;;;;457564;60;20964;-32
2020/12/02 00:20:10;;;;;;;152.80;115.57;;;19.50;41.90;;;;;;503018;56;20997;-34
2020/12/02 00:20:41;;;;;;;148.85;114.60;;;19.50;41.60;;;;;;482912;56;20988;-34
2020/12/02 00:21:13;;;;;;;155.95;118.00;;;19.50;41.60;;;;;;485848;56;21017;-34
2020/12/02 00:22:06;;;;;;;147.32;113.25;;;19.50;41.50;;;;;;462939;56;20969;-36
2020/12/02 00:22:37;;;;;;;160.45;119.20;;;19.50;41.60;;;;;;457400;60;22032;-34
2020/12/02 00:23:08;;;;;;;150.05;114.25;;;19.50;41.60;;;;;;457476;60;21857;-33
2020/12/02 00:23:39;;;;;;;152.10;116.47;;;19.50;41.60;;;;;;457438;60;20992;-35
2020/12/02 00:24:10;;;;;;;161.48;123.50;;;19.50;41.70;;;;;;472994;56;21081;-34
2020/12/02 00:24:42;;;;;;;157.88;118.13;;;19.50;41.70;;;;;;457411;60;21128;-32
2020/12/02 00:25:13;;;;;;;156.60;119.68;;;19.50;41.70;;;;;;497758;56;21013;-34
2020/12/02 00:25:44;;;;;;;154.20;116.10;;;19.50;41.60;;;;;;457398;60;21077;-34
2020/12/02 00:26:15;;;;;;;150.50;117.37;;;19.50;41.70;;;;;;464189;56;20973;-35
2020/12/02 00:26:46;;;;;;;152.62;116.57;;;19.50;41.80;;;;;;457427;60;21210;-35
2020/12/02 00:27:26;;;;;;;152.52;117.05;;;19.50;41.80;;;;;;466050;56;20995;-34
2020/12/02 00:28:09;;;;;;;150.65;113.65;;;19.50;41.80;;;;;;501561;56;21476;-30
2020/12/02 00:28:40;;;;;;;152.73;115.60;;;19.50;41.50;;;;;;480284;56;20953;-34
2020/12/02 00:29:11;;;;;;;159.63;118.18;;;19.50;41.60;;;;;;457676;60;20994;-33
2020/12/02 00:29:43;;;;;;;151.32;117.82;;;19.50;41.80;;;;;;462203;56;20981;-30
2020/12/02 00:30:16;;;;;;;151.95;117.18;;;19.50;41.70;;;;;;485253;56;21036;-33
2020/12/02 00:30:47;;;;;;;145.98;112.28;;;19.50;41.70;;;;;;484612;56;20956;-33
2020/12/02 00:31:19;;;;;;;153.43;114.15;;;19.50;41.60;;;;;;460554;56;21017;-33
2020/12/02 00:31:49;;;;;;;150.12;115.90;;;19.50;41.50;;;;;;457610;60;20977;-30
2020/12/02 00:32:44;;;;;;;148.05;114.00;;;19.50;41.60;;;;;;485395;56;21022;-35
2020/12/02 00:33:25;;;;;;;156.45;116.80;;;19.50;41.70;;;;;;496814;56;21077;-32
2020/12/02 00:33:55;;;;;;;155.10;116.45;;;19.50;41.70;;;;;;503357;55;20953;-33
2020/12/02 00:34:26;;;;;;;156.70;117.03;;;19.50;41.70;;;;;;480208;56;20968;-33
2020/12/02 00:34:58;;;;;;;148.38;112.07;;;19.50;41.90;;;;;;478099;56;20976;-35
2020/12/02 00:35:29;;;;;;;152.62;115.40;;;19.50;41.60;;;;;;457634;56;20944;-28
2020/12/02 00:36:00;;;;;;;151.90;114.93;;;19.50;41.60;;;;;;502798;56;21418;-22
2020/12/02 00:36:31;;;;;;;156.85;119.13;;;19.50;41.60;;;;;;460157;56;21128;-24
2020/12/02 00:37:02;;;;;;;155.45;117.22;;;19.50;41.60;;;;;;502599;56;21017;-26
2020/12/02 00:37:32;;;;;;;156.57;118.35;;;19.50;41.70;;;;;;468744;56;21036;-22
2020/12/02 00:38:05;;;;;;;152.48;118.60;;;19.50;41.70;;;;;;457505;60;20985;-28
2020/12/02 00:38:37;;;;;;;157.93;117.18;;;19.50;41.70;;;;;;468578;56;21069;-35
2020/12/02 00:39:09;;;;;;;154.82;117.03;;;19.50;41.70;;;;;;481143;56;20960;-35
2020/12/02 00:39:40;;;;;;;149.68;114.05;;;19.50;41.80;;;;;;492408;56;21014;-27
2020/12/02 00:40:13;;;;;;;143.52;111.47;;;19.50;41.60;;;;;;470013;56;21008;-35
2020/12/02 00:40:44;;;;;;;146.13;113.60;;;19.50;41.60;;;;;;478096;56;20988;-32
2020/12/02 00:41:15;;;;;;;150.45;113.80;;;19.50;41.70;;;;;;470524;56;21036;-35
2020/12/02 00:41:48;;;;;;;150.57;113.62;;;19.50;41.60;;;;;;470943;56;21069;-32
2020/12/02 00:42:20;;;;;;;156.37;116.32;;;19.50;41.50;;;;;;502984;56;21004;-35
2020/12/02 00:42:51;;;;;;;148.52;112.80;;;19.50;41.50;;;;;;457537;57;20996;-35
2020/12/02 00:43:24;;;;;;;147.68;112.57;;;19.50;41.50;;;;;;467955;56;21037;-35
2020/12/02 00:43:55;;;;;;;147.15;111.47;;;19.50;41.50;;;;;;457427;60;20971;-36
2020/12/02 00:44:26;;;;;;;150.00;112.28;;;19.50;41.50;;;;;;470999;56;21021;-36
2020/12/02 00:44:57;;;;;;;149.10;113.65;;;19.50;41.50;;;;;;468140;56;21132;-36
2020/12/02 00:45:28;;;;;;;151.82;115.62;;;19.50;41.40;;;;;;457462;60;21084;-34
2020/12/02 00:46:01;;;;;;;151.93;114.55;;;19.50;41.50;;;;;;469626;56;21658;-35
2020/12/02 00:46:32;;;;;;;146.35;112.72;;;19.50;41.50;;;;;;483110;56;20983;-35
2020/12/02 00:47:09;;;;;;;156.02;114.32;;;19.50;41.60;;;;;;476410;56;21057;-35
2020/12/02 00:47:41;;;;;;;156.60;115.00;;;19.50;41.60;;;;;;496927;56;20945;-35
2020/12/02 00:48:16;;;;;;;156.35;118.00;;;19.50;41.60;;;;;;459117;56;20988;-34
2020/12/02 00:48:52;;;;;;;153.52;114.62;;;19.50;41.60;;;;;;457652;60;20989;-34
2020/12/02 00:49:23;;;;;;;151.05;112.82;;;19.50;41.60;;;;;;497711;56;20953;-35
2020/12/02 00:49:55;;;;;;;151.52;113.72;;;19.50;41.40;;;;;;470355;56;20961;-34
2020/12/02 00:50:26;;;;;;;157.73;118.03;;;19.50;41.50;;;;;;459523;56;20945;-32
2020/12/02 00:50:59;;;;;;;156.02;114.60;;;19.50;41.60;;;;;;457484;60;21112;-32
2020/12/02 00:51:30;;;;;;;151.45;113.35;;;19.50;41.50;;;;;;464523;56;21033;-34
2020/12/02 00:52:01;;;;;;;147.80;111.75;;;19.50;41.60;;;;;;466405;56;21166;-32
2020/12/02 00:52:31;;;;;;;154.60;115.22;;;19.50;41.40;;;;;;457470;60;21065;-30
2020/12/02 00:53:14;;;;;;;152.12;113.25;;;19.50;41.40;;;;;;478280;56;20965;-33
2020/12/02 00:53:45;;;;;;;148.55;112.03;;;19.50;41.50;;;;;;460014;56;21001;-36
2020/12/02 00:54:16;;;;;;;154.10;117.00;;;19.50;41.50;;;;;;473398;56;20993;-34
2020/12/02 00:54:47;;;;;;;150.65;116.60;;;19.50;41.40;;;;;;457443;60;21021;-30
2020/12/02 00:55:18;;;;;;;153.43;114.75;;;19.50;41.40;;;;;;459271;56;20961;-34
2020/12/02 00:55:51;;;;;;;155.12;117.05;;;19.50;41.80;;;;;;502805;56;20965;-36
2020/12/02 00:56:22;;;;;;;151.85;113.20;;;19.50;41.60;;;;;;457713;56;20984;-35
2020/12/02 00:56:53;;;;;;;146.48;110.95;;;19.50;41.60;;;;;;463109;56;21060;-35
2020/12/02 00:57:31;;;;;;;149.32;111.82;;;19.50;41.50;;;;;;465317;56;21008;-35
2020/12/02 00:58:05;;;;;;;146.75;109.87;;;19.50;41.50;;;;;;479905;56;20942;-30
2020/12/02 01:00:07;;;;;;;151.70;112.30;;;19.50;41.50;;;;;;475301;56;20933;-36
2020/12/02 01:00:40;;;;;;;152.43;112.05;;;19.50;41.50;;;;;;458902;56;20964;-35
2020/12/02 01:01:18;;;;;;;157.55;115.78;;;19.50;41.60;;;;;;503058;56;21016;-36
2020/12/02 01:02:26;;;;;;;158.12;117.40;;;19.50;41.60;;;;;;494450;56;20969;-35
2020/12/02 01:03:26;;;;;;;148.85;110.78;;;19.50;41.60;;;;;;467268;56;20968;-35
2020/12/02 01:03:58;;;;;;;150.27;111.28;;;19.50;41.40;;;;;;489468;56;21021;-34
2020/12/02 01:04:31;;;;;;;154.48;114.45;;;19.50;41.50;;;;;;493354;56;21025;-35
2020/12/02 01:05:09;;;;;;;155.20;118.82;;;19.50;41.40;;;;;;468776;56;21034;-37
2020/12/02 01:05:41;;;;;;;155.00;114.75;;;19.50;41.40;;;;;;457759;60;21453;-28
2020/12/02 01:06:11;;;;;;;155.80;116.93;;;19.50;41.50;;;;;;458105;56;20993;-32
2020/12/02 01:06:45;;;;;;;154.38;114.97;;;19.50;41.50;;;;;;475283;56;21036;-34
2020/12/02 01:07:16;;;;;;;151.98;110.28;;;19.50;41.60;;;;;;457897;56;21031;-35
2020/12/02 01:07:47;;;;;;;155.55;114.50;;;19.50;41.50;;;;;;472053;56;21076;-35
2020/12/02 01:08:31;;;;;;;152.27;117.30;;;19.50;41.50;;;;;;473771;56;21056;-33
2020/12/02 01:09:03;;;;;;;154.02;114.72;;;19.50;41.50;;;;;;457439;60;20997;-32
2020/12/02 01:09:34;;;;;;;155.15;116.28;;;19.50;41.60;;;;;;502870;56;21114;-35
2020/12/02 01:10:05;;;;;;;152.38;113.93;;;19.50;41.80;;;;;;487886;56;21025;-35
2020/12/02 01:10:36;;;;;;;148.40;110.63;;;19.50;41.50;;;;;;457426;60;21008;-35
2020/12/02 01:11:21;;;;;;;151.75;113.75;;;19.50;41.40;;;;;;475946;56;20969;-30
2020/12/02 01:11:56;;;;;;;147.55;112.88;;;19.50;41.50;;;;;;494355;56;21100;-33
2020/12/02 01:12:27;;;;;;;148.23;112.57;;;19.50;41.40;;;;;;457641;60;21008;-35
2020/12/02 01:12:58;;;;;;;151.90;113.53;;;19.50;41.40;;;;;;490889;56;21268;-35
2020/12/02 01:13:32;;;;;;;151.87;113.75;;;19.50;41.40;;;;;;467211;56;20999;-36
2020/12/02 01:14:08;;;;;;;156.30;115.22;;;19.50;41.50;;;;;;467630;56;21010;-35
2020/12/02 01:14:40;;;;;;;146.93;112.12;;;19.50;41.60;;;;;;457487;57;21029;-33
2020/12/02 01:15:15;;;;;;;150.27;113.22;;;19.50;41.50;;;;;;503205;56;21073;-34
2020/12/02 01:15:46;;;;;;;150.93;111.18;;;19.50;41.60;;;;;;503022;56;20998;-29
2020/12/02 01:16:21;;;;;;;151.25;112.50;;;19.50;41.40;;;;;;476103;56;21058;-26
2020/12/02 01:16:55;;;;;;;154.57;112.90;;;19.50;41.40;;;;;;495932;56;21008;-31
2020/12/02 01:17:26;;;;;;;148.55;112.60;;;19.50;41.40;;;;;;492712;56;21017;-35
2020/12/02 01:18:17;;;;;;;146.68;110.93;;;19.50;41.30;;;;;;468242;56;21021;-31
2020/12/02 01:18:48;;;;;;;152.73;115.05;;;19.50;41.40;;;;;;502844;56;21435;-35
2020/12/02 01:19:25;;;;;;;148.45;112.53;;;19.50;41.30;;;;;;482251;56;20937;-34
2020/12/02 01:19:56;;;;;;;152.32;114.68;;;19.50;41.50;;;;;;458166;56;21028;-33
2020/12/02 01:20:27;;;;;;;150.12;112.97;;;19.50;41.70;;;;;;458937;56;21130;-34
2020/12/02 01:21:31;;;;;;;146.00;111.95;;;19.50;41.40;;;;;;457514;57;21032;-32
2020/12/02 01:22:51;;;;;;;155.70;115.18;;;19.50;41.40;;;;;;468392;56;20964;-35
2020/12/02 01:23:22;;;;;;;;;;;19.50;41.40;;;;;;461250;56;21073;-35
2020/12/02 01:23:58;;;;;;;157.82;115.37;;;19.50;41.50;;;;;;457434;60;20090;-35
2020/12/02 01:24:35;;;;;;;153.85;111.62;;;19.50;41.50;;;;;;463576;56;21100;-32
2020/12/02 01:25:19;;;;;;;146.60;110.80;;;19.50;41.40;;;;;;457503;60;21012;-30
2020/12/02 01:25:52;;;;;;;147.85;110.22;;;19.50;41.50;;;;;;502861;56;20956;-35
2020/12/02 01:26:30;;;;;;;151.55;111.20;;;19.50;41.40;;;;;;485208;56;21617;-35
2020/12/02 01:27:23;;;;;;;152.02;113.47;;;19.50;41.40;;;;;;486179;56;20953;-36
2020/12/02 01:28:04;;;;;;;149.90;112.37;;;19.50;41.30;;;;;;478232;56;20942;-30
2020/12/02 01:28:37;;;;;;;149.43;112.18;;;19.50;42.10;;;;;;483844;56;21036;-32
2020/12/02 01:29:17;;;;;;;149.07;112.78;;;19.50;41.50;;;;;;465653;56;21465;-33
2020/12/02 01:29:49;;;;;;;147.07;110.22;;;19.50;41.60;;;;;;457455;60;21491;-37
2020/12/02 01:30:21;;;;;;;152.20;113.47;;;19.50;41.40;;;;;;457444;60;21164;-35
2020/12/02 01:30:55;;;;;;;146.98;112.07;;;19.50;41.30;;;;;;487040;56;21311;-36
2020/12/02 01:31:26;;;;;;;155.25;115.82;;;19.50;41.30;;;;;;494013;56;21009;-35
2020/12/02 01:31:58;;;;;;;153.23;114.85;;;19.50;41.40;;;;;;468806;56;20949;-36
2020/12/02 01:32:29;;;;;;;149.25;113.62;;;19.50;41.40;;;;;;469706;56;21029;-37
2020/12/02 01:33:00;;;;;;;145.25;109.07;;;19.50;41.50;;;;;;471571;56;20993;-36
2020/12/02 01:33:31;;;;;;;148.98;111.72;;;19.50;41.40;;;;;;502950;56;21475;-37
2020/12/02 01:34:02;;;;;;;147.55;109.10;;;19.50;41.40;;;;;;457481;60;21103;-36
2020/12/02 01:34:33;;;;;;;148.68;113.32;;;19.50;41.30;;;;;;491314;56;21020;-32
2020/12/02 01:35:05;;;;;;;145.95;109.55;;;19.50;41.30;;;;;;474515;56;21022;-31
2020/12/02 01:35:36;;;;;;;151.52;112.05;;;19.50;41.30;;;;;;473322;56;21028;-32
2020/12/02 01:36:10;;;;;;;148.05;110.90;;;19.50;41.30;;;;;;457426;60;20941;-30
2020/12/02 01:37:34;;;;;;;149.57;111.47;;;19.50;41.40;;;;;;473803;56;21025;-29
2020/12/02 01:38:06;;;;;;;153.50;111.40;;;19.50;41.30;;;;;;463519;56;21121;-35
2020/12/02 01:38:40;;;;;;;158.05;116.97;;;19.50;41.40;;;;;;485484;56;21514;-33
2020/12/02 01:39:12;;;;;;;152.60;111.90;;;19.50;41.40;;;;;;472938;56;20964;-29
2020/12/02 01:39:47;;;;;;;150.20;111.15;;;19.50;41.50;;;;;;480231;56;20949;-30
2020/12/02 01:40:25;;;;;;;151.40;113.65;;;19.50;41.30;;;;;;464412;56;21168;-28
2020/12/02 01:40:56;;;;;;;149.15;110.30;;;19.50;41.30;;;;;;461045;56;21052;-26
2020/12/02 01:41:28;;;;;;;152.57;114.75;;;19.50;41.30;;;;;;470691;56;20993;-31
2020/12/02 01:41:58;;;;;;;142.52;107.93;;;19.50;41.30;;;;;;485081;56;21014;-35
2020/12/02 01:42:29;;;;;;;146.25;110.90;;;19.50;41.30;;;;;;485707;56;21013;-31
2020/12/02 01:43:14;;;;;;;147.07;110.25;;;19.50;41.30;;;;;;497168;56;21037;-29
2020/12/02 01:43:45;;;;;;;146.90;111.28;;;19.50;41.30;;;;;;457471;60;20978;-30
2020/12/02 01:44:16;;;;;;;145.38;109.57;;;19.50;41.30;;;;;;457834;56;20941;-30
2020/12/02 01:44:47;;;;;;;143.13;107.43;;;19.50;41.20;;;;;;478515;56;20976;-31
2020/12/02 01:45:25;;;;;;;139.23;104.95;;;19.50;41.90;;;;;;480925;56;20945;-34
2020/12/02 01:46:05;;;;;;;142.15;107.53;;;19.50;41.40;;;;;;472806;56;21032;-33
2020/12/02 01:47:18;;;;;;;148.80;110.18;;;19.50;41.20;;;;;;459054;56;21005;-34
2020/12/02 01:48:55;;;;;;;154.12;112.22;;;19.50;41.40;;;;;;468466;56;21017;-35
2020/12/02 01:49:47;;;;;;;153.90;111.95;;;19.50;41.30;;;;;;489171;56;21029;-35
2020/12/02 01:50:51;;;;;;;147.50;109.93;;;19.50;41.20;;;;;;482658;56;21479;-30
2020/12/02 01:51:43;;;;;;;149.93;109.63;;;19.50;41.30;;;;;;457542;60;22306;-35
2020/12/02 01:53:24;;;;;;;148.43;111.82;;;19.50;41.20;;;;;;475305;56;20985;-36
2020/12/02 01:54:05;;;;;;;152.75;110.37;;;19.50;41.30;;;;;;457572;56;21021;-31
2020/12/02 01:54:44;;;;;;;148.90;110.60;;;19.50;41.40;;;;;;494401;56;21070;-35
2020/12/02 01:55:22;;;;;;;151.32;111.85;;;19.50;41.40;;;;;;465915;56;21007;-36
2020/12/02 01:56:01;;;;;;;143.73;107.78;;;19.50;41.30;;;;;;479649;56;21080;-31
2020/12/02 01:56:57;;;;;;;147.75;109.00;;;19.50;41.20;;;;;;468334;56;21016;-32
2020/12/02 01:57:37;;;;;;;144.13;107.72;;;19.50;41.30;;;;;;460710;56;20997;-28
2020/12/02 01:58:16;;;;;;;149.73;110.35;;;19.50;41.30;;;;;;466731;56;21037;-34
2020/12/02 02:00:40;;;;;;;148.62;113.47;;;19.40;41.20;;;;;;460167;56;20961;-33
2020/12/02 02:01:38;;;;;;;147.23;108.05;;;19.50;41.20;;;;;;472825;56;21318;-30
2020/12/02 02:02:42;;;;;;;150.98;108.55;;;19.50;41.30;;;;;;472602;56;21191;-38
2020/12/02 02:03:15;;;;;;;149.90;109.90;;;19.40;41.20;;;;;;461248;56;20969;-30
2020/12/02 02:03:49;;;;;;;139.57;105.22;;;19.40;41.20;;;;;;482632;56;20957;-29
2020/12/02 02:04:26;;;;;;;146.13;109.55;;;19.50;41.20;;;;;;479919;56;20937;-33
2020/12/02 02:05:14;;;;;;;148.00;107.85;;;19.50;41.20;;;;;;459246;56;21069;-34
2020/12/02 02:05:58;;;;;;;143.77;107.32;;;19.50;41.30;;;;;;469121;56;21037;-34
2020/12/02 02:06:56;;;;;;;140.75;106.60;;;19.50;41.20;;;;;;491135;56;20953;-33
2020/12/02 02:07:28;;;;;;;149.30;109.45;;;19.50;41.20;;;;;;457470;60;20984;-35
2020/12/02 02:07:59;;;;;;;149.32;110.80;;;19.50;41.20;;;;;;484210;56;20968;-33
2020/12/02 02:08:32;;;;;;;144.75;107.95;;;19.50;41.30;;;;;;457425;60;21076;-26
2020/12/02 02:09:03;;;;;;;150.25;112.60;;;19.50;41.20;;;;;;463335;56;20981;-35
2020/12/02 02:09:34;;;;;;;144.75;108.37;;;19.50;41.30;;;;;;459441;56;21006;-34
2020/12/02 02:10:18;;;;;;;146.77;110.80;;;19.40;41.30;;;;;;502858;56;21005;-35
2020/12/02 02:10:51;;;;;;;142.65;107.80;;;19.50;41.40;;;;;;457878;56;20988;-35
2020/12/02 02:11:23;;;;;;;143.15;107.97;;;19.40;41.20;;;;;;487503;56;21049;-36
2020/12/02 02:12:16;;;;;;;142.68;107.80;;;19.40;41.10;;;;;;457460;60;20993;-36
2020/12/02 02:16:16;;;;;;;145.07;107.15;;;19.50;41.20;;;;;;460030;56;21022;-30
2020/12/02 02:16:48;;;;;;;145.43;105.37;;;19.40;41.10;;;;;;486652;56;21503;-35
2020/12/02 02:17:19;;;;;;;144.77;109.72;;;19.50;41.20;;;;;;502814;56;20960;-32
2020/12/02 02:18:03;;;;;;;143.77;106.65;;;19.50;41.30;;;;;;457415;60;21010;-31
2020/12/02 02:18:34;;;;;;;144.60;105.85;;;19.50;41.20;;;;;;458966;56;21057;-26
2020/12/02 02:19:05;;;;;;;145.10;108.63;;;19.40;41.20;;;;;;460618;56;20981;-26
2020/12/02 02:19:36;;;;;;;142.82;107.20;;;19.40;41.20;;;;;;457437;60;21041;-30
2020/12/02 02:20:09;;;;;;;144.87;106.85;;;19.40;41.30;;;;;;462332;56;20972;-30
2020/12/02 02:20:45;;;;;;;146.07;108.35;;;19.40;41.10;;;;;;472100;56;21117;-34
2020/12/02 02:21:42;;;;;;;142.73;106.35;;;19.40;41.10;;;;;;477753;56;20993;-29
2020/12/02 02:22:12;;;;;;;145.40;108.05;;;19.40;41.20;;;;;;457569;60;21038;-33
2020/12/02 02:22:43;;;;;;;138.88;104.75;;;19.50;41.40;;;;;;490912;56;21017;-33
2020/12/02 02:23:16;;;;;;;144.85;107.47;;;19.50;41.20;;;;;;465801;56;20953;-32
2020/12/02 02:23:47;;;;;;;148.07;109.68;;;19.40;41.10;;;;;;475501;56;21008;-33
2020/12/02 02:24:18;;;;;;;144.62;108.80;;;19.40;41.10;;;;;;464867;56;21041;-35
2020/12/02 02:24:50;;;;;;;145.95;109.22;;;19.40;41.20;;;;;;464664;56;20989;-35
2020/12/02 02:25:21;;;;;;;143.30;107.28;;;19.40;41.20;;;;;;482160;56;21048;-36
2020/12/02 02:26:09;;;;;;;146.82;108.97;;;19.40;41.20;;;;;;467548;56;20957;-36
2020/12/02 02:26:42;;;;;;;139.62;106.65;;;19.40;41.10;;;;;;457529;60;21062;-34
2020/12/02 02:27:15;;;;;;;143.15;105.78;;;19.40;41.20;;;;;;457460;60;20969;-32
2020/12/02 02:27:47;;;;;;;145.80;108.95;;;19.50;41.20;;;;;;485448;56;21021;-34
2020/12/02 02:28:18;;;;;;;142.13;105.40;;;19.50;41.20;;;;;;457451;57;21061;-35
2020/12/02 02:29:15;;;;;;;139.60;105.45;;;19.50;41.10;;;;;;472320;56;21091;-35
2020/12/02 02:29:47;;;;;;;142.98;105.68;;;19.40;41.10;;;;;;468681;56;21020;-31
2020/12/02 02:30:18;;;;;;;143.25;107.00;;;19.50;41.10;;;;;;461607;56;21077;-30
2020/12/02 02:30:50;;;;;;;140.05;103.53;;;19.40;41.10;;;;;;503042;56;20972;-32
2020/12/02 02:31:24;;;;;;;142.43;106.03;;;19.40;41.00;;;;;;473652;56;21016;-33
2020/12/02 02:32:08;;;;;;;146.02;109.37;;;19.40;41.00;;;;;;457695;56;20984;-34
2020/12/02 02:32:40;;;;;;;146.77;109.18;;;19.40;41.20;;;;;;498404;56;20977;-35
2020/12/02 02:33:11;;;;;;;144.77;109.05;;;19.40;41.30;;;;;;470522;56;21025;-32
2020/12/02 02:33:42;;;;;;;150.77;109.40;;;19.50;41.40;;;;;;457465;60;20973;-34
2020/12/02 02:34:14;;;;;;;142.48;107.20;;;19.50;41.20;;;;;;471605;56;21032;-32
2020/12/02 02:34:57;;;;;;;138.93;104.95;;;19.50;41.30;;;;;;472414;56;21414;-33
2020/12/02 02:35:29;;;;;;;142.40;106.10;;;19.40;41.10;;;;;;485522;56;20945;-32
2020/12/02 02:36:00;;;;;;;141.60;104.40;;;19.50;41.20;;;;;;457420;60;21017;-36
2020/12/02 02:36:31;;;;;;;136.57;102.53;;;19.50;41.20;;;;;;474110;56;20989;-35
2020/12/02 02:37:03;;;;;;;140.85;107.43;;;19.50;41.20;;;;;;460872;56;21008;-31
2020/12/02 02:37:34;;;;;;;140.02;105.35;;;19.40;41.10;;;;;;473421;56;21020;-35
2020/12/02 02:38:05;;;;;;;142.57;107.85;;;19.40;41.10;;;;;;483964;56;21072;-36
2020/12/02 02:38:37;;;;;;;142.32;106.60;;;19.50;41.20;;;;;;496338;56;21013;-36
2020/12/02 02:39:10;;;;;;;141.85;108.10;;;19.50;41.20;;;;;;485682;56;21061;-35
2020/12/02 02:39:42;;;;;;;138.55;103.65;;;19.40;41.20;;;;;;457694;60;20953;-35
2020/12/02 02:40:13;;;;;;;140.00;104.40;;;19.40;41.10;;;;;;459037;56;21056;-33
2020/12/02 02:40:44;;;;;;;141.30;106.43;;;19.50;41.20;;;;;;483578;56;21026;-33
2020/12/02 02:41:15;;;;;;;145.32;107.00;;;19.40;41.10;;;;;;468646;56;21032;-34
2020/12/02 02:41:47;;;;;;;140.37;105.97;;;19.50;41.20;;;;;;490261;56;20949;-34
2020/12/02 02:42:46;;;;;;;140.57;106.55;;;19.40;41.10;;;;;;502830;56;20961;-35
2020/12/02 02:43:17;;;;;;;144.00;109.43;;;19.40;41.10;;;;;;468022;56;21171;-35
2020/12/02 02:43:48;;;;;;;143.82;105.30;;;19.40;41.20;;;;;;468933;56;21024;-35
2020/12/02 02:44:19;;;;;;;135.45;102.60;;;19.40;41.10;;;;;;472473;56;21028;-35
2020/12/02 02:44:52;;;;;;;139.48;105.78;;;19.50;41.10;;;;;;457413;60;21012;-34
2020/12/02 02:45:26;;;;;;;140.18;105.32;;;19.50;41.10;;;;;;490790;56;20957;-32
2020/12/02 02:45:57;;;;;;;141.82;103.55;;;19.40;41.10;;;;;;485538;56;20937;-33
2020/12/02 02:46:28;;;;;;;139.25;105.60;;;19.40;41.10;;;;;;457482;60;21020;-35
2020/12/02 02:47:00;;;;;;;141.27;105.93;;;19.50;41.20;;;;;;491573;56;21467;-35
2020/12/02 02:47:30;;;;;;;135.30;103.30;;;19.40;41.40;;;;;;502847;56;20997;-35
2020/12/02 02:48:06;;;;;;;139.98;105.12;;;19.50;41.20;;;;;;466114;56;21001;-37
2020/12/02 02:48:37;;;;;;;143.60;109.35;;;19.50;41.10;;;;;;502847;56;20996;-28
2020/12/02 02:49:09;;;;;;;139.60;105.25;;;19.40;41.00;;;;;;457450;60;20964;-27
2020/12/02 02:49:40;;;;;;;138.57;104.12;;;19.50;41.20;;;;;;458259;56;21538;-34
2020/12/02 02:50:15;;;;;;;144.05;109.25;;;19.40;41.30;;;;;;465240;56;20996;-34
2020/12/02 02:50:45;;;;;;;141.10;105.28;;;19.40;41.20;;;;;;471162;56;20973;-39
2020/12/02 02:51:17;;;;;;;135.68;102.38;;;19.50;41.20;;;;;;462077;56;20968;-32
2020/12/02 02:51:49;;;;;;;136.25;103.47;;;19.40;41.00;;;;;;471158;56;20968;-31
2020/12/02 02:52:20;;;;;;;139.75;104.28;;;19.40;41.00;;;;;;503003;56;20941;-34
2020/12/02 02:52:52;;;;;;;134.57;103.93;;;19.40;41.00;;;;;;463621;56;21187;-34
2020/12/02 02:53:26;;;;;;;138.60;104.93;;;19.40;41.00;;;;;;465150;56;21057;-35
2020/12/02 02:53:57;;;;;;;140.68;109.18;;;19.40;41.00;;;;;;502880;56;20961;-35
2020/12/02 02:54:27;;;;;;;143.68;106.85;;;19.40;41.10;;;;;;460528;56;20985;-31
2020/12/02 02:54:58;;;;;;;137.07;103.57;;;19.40;41.20;;;;;;495107;56;20969;-33
2020/12/02 02:55:29;;;;;;;135.82;104.00;;;19.40;41.20;;;;;;502936;56;20985;-33
2020/12/02 02:56:00;;;;;;;139.18;102.45;;;19.40;41.10;;;;;;489070;56;20985;-34
2020/12/02 02:56:31;;;;;;;130.85;100.90;;;19.50;41.00;;;;;;465730;56;21092;-35
2020/12/02 02:57:02;;;;;;;135.93;102.28;;;19.40;41.00;;;;;;463910;56;22347;-34
2020/12/02 02:57:33;;;;;;;134.95;102.25;;;19.40;40.90;;;;;;467870;56;21000;-33
2020/12/02 02:58:04;;;;;;;133.60;102.03;;;19.40;41.00;;;;;;468444;56;21080;-36
2020/12/02 02:58:35;;;;;;;135.40;101.22;;;19.40;40.90;;;;;;470259;56;21259;-36
2020/12/02 02:59:08;;;;;;;134.90;103.57;;;19.40;41.00;;;;;;470785;56;21032;-32
2020/12/02 02:59:39;;;;;;;134.55;101.45;;;19.40;41.00;;;;;;457512;60;21132;-36
2020/12/02 03:00:16;;;;;;;138.15;105.90;;;19.40;41.00;;;;;;470734;56;21088;-35
2020/12/02 03:00:48;;;;;;;135.68;101.15;;;19.40;41.00;;;;;;486253;56;21004;-35
2020/12/02 03:01:18;;;;;;;137.57;102.45;;;19.50;41.10;;;;;;462682;56;21399;-34
2020/12/02 03:01:49;;;;;;;143.73;106.45;;;19.40;41.10;;;;;;462512;56;21004;-34
2020/12/02 03:02:20;;;;;;;145.10;107.68;;;19.50;41.30;;;;;;459045;56;21066;-35
2020/12/02 03:02:52;;;;;;;135.05;102.75;;;19.40;41.10;;;;;;465588;56;21056;-34
2020/12/02 03:03:23;;;;;;;140.27;105.18;;;19.40;41.00;;;;;;489891;56;21036;-34
2020/12/02 03:03:53;;;;;;;134.95;101.75;;;19.40;41.00;;;;;;473181;56;20984;-34
2020/12/02 03:04:24;;;;;;;133.80;100.47;;;19.40;41.10;;;;;;469097;56;20989;-35
2020/12/02 03:04:55;;;;;;;135.73;102.62;;;19.40;41.00;;;;;;463725;56;20945;-34
2020/12/02 03:05:27;;;;;;;134.48;102.40;;;19.40;41.00;;;;;;463737;56;20972;-36